sensor_id;sensor_type;location;lat;lon;timestamp;pressure;altitude;pressure_sealevel;temperature;humidity
58759;BME280;46777;47.482;19.054;2022-08-02T00:01:08;100314.56;;;26.65;nan
58759;BME280;46777;47.482;19.054;2022-08-02T00:03:53;100316.84;;;26.72;nan
58759;BME280;46777;47.482;19.054;2022-08-02T00:06:38;100333.00;;;26.33;nan
58759;BME280;46777;47.482;19.054;2022-08-02T00:09:22;100330.63;;;26.28;nan
58759;BME280;46777;47.482;19.054;2022-08-02T00:12:07;100331.72;;;26.52;nan
58759;BME280;46777;47.482;19.054;2022-08-02T00:14:53;100324.81;;;26.35;nan
58759;BME280;46777;47.482;19.054;2022-08-02T00:17:37;100332.03;;;26.73;nan
58759;BME280;46777;47.482;19.054;2022-08-02T00:20:22;100332.13;;;26.45;nan
58759;BME280;46777;47.482;19.054;2022-08-02T00:23:07;100326.94;;;26.55;nan
58759;BME280;46777;47.482;19.054;2022-08-02T00:25:52;100326.97;;;26.29;nan
58759;BME280;46777;47.482;19.054;2022-08-02T00:28:37;100331.94;;;26.36;nan
58759;BME280;46777;47.482;19.054;2022-08-02T00:31:22;100331.06;;;26.22;nan
58759;BME280;46777;47.482;19.054;2022-08-02T00:34:07;100325.47;;;26.25;nan
58759;BME280;46777;47.482;19.054;2022-08-02T00:36:51;100325.16;;;25.77;nan
58759;BME280;46777;47.482;19.054;2022-08-02T00:39:36;100326.34;;;26.13;nan
58759;BME280;46777;47.482;19.054;2022-08-02T00:42:21;100330.84;;;26.00;nan
58759;BME280;46777;47.482;19.054;2022-08-02T00:45:07;100331.06;;;26.22;nan
58759;BME280;46777;47.482;19.054;2022-08-02T00:47:51;100342.47;;;26.13;nan
58759;BME280;46777;47.482;19.054;2022-08-02T00:50:37;100332.78;;;26.10;nan
58759;BME280;46777;47.482;19.054;2022-08-02T00:53:22;100335.53;;;25.96;nan
58759;BME280;46777;47.482;19.054;2022-08-02T00:56:07;100331.22;;;25.93;nan
58759;BME280;46777;47.482;19.054;2022-08-02T00:58:52;100333.81;;;25.82;nan
58759;BME280;46777;47.482;19.054;2022-08-02T01:01:37;100339.19;;;25.82;nan
58759;BME280;46777;47.482;19.054;2022-08-02T01:04:22;100341.97;;;25.93;nan
58759;BME280;46777;47.482;19.054;2022-08-02T01:07:07;100348.16;;;25.55;nan
58759;BME280;46777;47.482;19.054;2022-08-02T01:09:52;100352.69;;;25.68;nan
58759;BME280;46777;47.482;19.054;2022-08-02T01:12:37;100358.19;;;25.39;nan
58759;BME280;46777;47.482;19.054;2022-08-02T01:15:22;100358.19;;;25.24;nan
58759;BME280;46777;47.482;19.054;2022-08-02T01:18:24;100345.16;;;25.33;nan
58759;BME280;46777;47.482;19.054;2022-08-02T01:22:13;100349.16;;;25.40;nan
58759;BME280;46777;47.482;19.054;2022-08-02T01:28:38;100345.28;;;25.44;nan
58759;BME280;46777;47.482;19.054;2022-08-02T01:31:35;100353.31;;;25.17;nan
58759;BME280;46777;47.482;19.054;2022-08-02T01:35:06;100350.16;;;25.52;nan
58759;BME280;46777;47.482;19.054;2022-08-02T01:37:55;100343.63;;;25.14;nan
58759;BME280;46777;47.482;19.054;2022-08-02T01:40:43;100336.06;;;25.48;nan
58759;BME280;46777;47.482;19.054;2022-08-02T01:43:30;100342.06;;;25.39;nan
58759;BME280;46777;47.482;19.054;2022-08-02T01:46:17;100360.56;;;25.02;nan
58759;BME280;46777;47.482;19.054;2022-08-02T01:49:06;100360.97;;;24.96;nan
58759;BME280;46777;47.482;19.054;2022-08-02T01:51:53;100367.25;;;25.09;nan
58759;BME280;46777;47.482;19.054;2022-08-02T01:55:03;100368.75;;;25.13;nan
58759;BME280;46777;47.482;19.054;2022-08-02T01:57:54;100370.50;;;25.14;nan
58759;BME280;46777;47.482;19.054;2022-08-02T02:00:40;100371.63;;;25.24;nan
58759;BME280;46777;47.482;19.054;2022-08-02T02:03:26;100376.63;;;25.31;nan
58759;BME280;46777;47.482;19.054;2022-08-02T02:06:12;100371.75;;;25.50;nan
58759;BME280;46777;47.482;19.054;2022-08-02T02:08:59;100377.03;;;25.10;nan
58759;BME280;46777;47.482;19.054;2022-08-02T02:11:45;100371.88;;;24.92;nan
58759;BME280;46777;47.482;19.054;2022-08-02T02:14:32;100392.59;;;24.90;nan
58759;BME280;46777;47.482;19.054;2022-08-02T02:17:20;100390.97;;;24.88;nan
58759;BME280;46777;47.482;19.054;2022-08-02T02:20:06;100393.25;;;25.08;nan
58759;BME280;46777;47.482;19.054;2022-08-02T02:22:51;100397.00;;;24.91;nan
58759;BME280;46777;47.482;19.054;2022-08-02T02:25:36;100392.72;;;24.60;nan
58759;BME280;46777;47.482;19.054;2022-08-02T02:28:30;100399.50;;;24.80;nan
58759;BME280;46777;47.482;19.054;2022-08-02T02:31:16;100397.88;;;24.92;nan
58759;BME280;46777;47.482;19.054;2022-08-02T02:34:32;100394.78;;;25.13;nan
58759;BME280;46777;47.482;19.054;2022-08-02T02:37:22;100394.13;;;24.95;nan
58759;BME280;46777;47.482;19.054;2022-08-02T02:40:08;100392.78;;;24.73;nan
58759;BME280;46777;47.482;19.054;2022-08-02T02:42:53;100403.72;;;24.99;nan
58759;BME280;46777;47.482;19.054;2022-08-02T02:45:39;100404.88;;;24.95;nan
58759;BME280;46777;47.482;19.054;2022-08-02T02:48:26;100403.72;;;24.70;nan
58759;BME280;46777;47.482;19.054;2022-08-02T02:51:12;100401.88;;;24.85;nan
58759;BME280;46777;47.482;19.054;2022-08-02T02:53:57;100399.28;;;24.54;nan
58759;BME280;46777;47.482;19.054;2022-08-02T02:56:43;100393.19;;;24.67;nan
58759;BME280;46777;47.482;19.054;2022-08-02T02:59:29;100393.38;;;24.64;nan
58759;BME280;46777;47.482;19.054;2022-08-02T03:02:14;100393.75;;;24.86;nan
58759;BME280;46777;47.482;19.054;2022-08-02T03:05:00;100397.97;;;24.76;nan
58759;BME280;46777;47.482;19.054;2022-08-02T03:07:46;100399.28;;;24.54;nan
58759;BME280;46777;47.482;19.054;2022-08-02T03:10:31;100388.56;;;24.54;nan
58759;BME280;46777;47.482;19.054;2022-08-02T03:13:17;100382.13;;;24.57;nan
58759;BME280;46777;47.482;19.054;2022-08-02T03:16:03;100376.69;;;24.73;nan
58759;BME280;46777;47.482;19.054;2022-08-02T03:18:47;100379.00;;;24.65;nan
58759;BME280;46777;47.482;19.054;2022-08-02T03:21:32;100381.31;;;24.85;nan
58759;BME280;46777;47.482;19.054;2022-08-02T03:24:17;100379.19;;;24.62;nan
58759;BME280;46777;47.482;19.054;2022-08-02T03:27:02;100374.22;;;24.25;nan
58759;BME280;46777;47.482;19.054;2022-08-02T03:29:47;100382.41;;;24.38;nan
58759;BME280;46777;47.482;19.054;2022-08-02T03:32:33;100377.50;;;24.45;nan
58759;BME280;46777;47.482;19.054;2022-08-02T03:35:18;100389.75;;;24.65;nan
58759;BME280;46777;47.482;19.054;2022-08-02T03:38:04;100390.09;;;24.73;nan
58759;BME280;46777;47.482;19.054;2022-08-02T03:40:50;100390.59;;;24.80;nan
58759;BME280;46777;47.482;19.054;2022-08-02T03:43:35;100393.94;;;24.83;nan
58759;BME280;46777;47.482;19.054;2022-08-02T03:46:22;100399.66;;;24.48;nan
58759;BME280;46777;47.482;19.054;2022-08-02T03:49:07;100406.47;;;24.39;nan
58759;BME280;46777;47.482;19.054;2022-08-02T03:51:54;100397.16;;;24.31;nan
58759;BME280;46777;47.482;19.054;2022-08-02T03:54:39;100392.56;;;24.47;nan
58759;BME280;46777;47.482;19.054;2022-08-02T03:57:24;100417.72;;;24.61;nan
58759;BME280;46777;47.482;19.054;2022-08-02T04:00:11;100421.34;;;24.60;nan
58759;BME280;46777;47.482;19.054;2022-08-02T04:03:00;100419.25;;;23.90;nan
58759;BME280;46777;47.482;19.054;2022-08-02T04:05:45;100422.72;;;23.92;nan
58759;BME280;46777;47.482;19.054;2022-08-02T04:08:31;100420.06;;;24.06;nan
58759;BME280;46777;47.482;19.054;2022-08-02T04:11:16;100419.22;;;24.50;nan
58759;BME280;46777;47.482;19.054;2022-08-02T04:14:15;100419.03;;;24.53;nan
58759;BME280;46777;47.482;19.054;2022-08-02T04:17:04;100423.41;;;24.40;nan
58759;BME280;46777;47.482;19.054;2022-08-02T04:19:52;100417.47;;;24.49;nan
58759;BME280;46777;47.482;19.054;2022-08-02T04:22:44;100426.69;;;24.45;nan
58759;BME280;46777;47.482;19.054;2022-08-02T04:25:31;100430.56;;;24.25;nan
58759;BME280;46777;47.482;19.054;2022-08-02T04:28:17;100431.22;;;24.29;nan
58759;BME280;46777;47.482;19.054;2022-08-02T04:31:03;100437.22;;;24.48;nan
58759;BME280;46777;47.482;19.054;2022-08-02T04:33:48;100442.13;;;24.11;nan
58759;BME280;46777;47.482;19.054;2022-08-02T04:36:34;100439.13;;;24.46;nan
58759;BME280;46777;47.482;19.054;2022-08-02T04:39:20;100441.97;;;24.29;nan
58759;BME280;46777;47.482;19.054;2022-08-02T04:42:05;100439.59;;;24.69;nan
58759;BME280;46777;47.482;19.054;2022-08-02T04:44:50;100442.25;;;24.83;nan
58759;BME280;46777;47.482;19.054;2022-08-02T04:47:36;100442.66;;;24.77;nan
58759;BME280;46777;47.482;19.054;2022-08-02T04:50:20;100443.22;;;24.97;nan
58759;BME280;46777;47.482;19.054;2022-08-02T04:53:05;100446.50;;;24.87;nan
58759;BME280;46777;47.482;19.054;2022-08-02T04:55:50;100436.09;;;25.24;nan
58759;BME280;46777;47.482;19.054;2022-08-02T04:58:35;100450.47;;;25.23;nan
58759;BME280;46777;47.482;19.054;2022-08-02T05:01:20;100447.34;;;25.02;nan
58759;BME280;46777;47.482;19.054;2022-08-02T05:04:05;100453.97;;;25.25;nan
58759;BME280;46777;47.482;19.054;2022-08-02T05:06:49;100444.41;;;25.49;nan
58759;BME280;46777;47.482;19.054;2022-08-02T05:09:34;100450.63;;;25.63;nan
58759;BME280;46777;47.482;19.054;2022-08-02T05:12:19;100450.13;;;25.15;nan
58759;BME280;46777;47.482;19.054;2022-08-02T05:15:10;100457.78;;;25.77;nan
58759;BME280;46777;47.482;19.054;2022-08-02T05:17:54;100460.38;;;25.23;nan
58759;BME280;46777;47.482;19.054;2022-08-02T05:20:39;100466.81;;;25.06;nan
58759;BME280;46777;47.482;19.054;2022-08-02T05:23:24;100467.56;;;25.37;nan
58759;BME280;46777;47.482;19.054;2022-08-02T05:26:09;100475.00;;;25.60;nan
58759;BME280;46777;47.482;19.054;2022-08-02T05:28:54;100478.47;;;25.62;nan
58759;BME280;46777;47.482;19.054;2022-08-02T05:31:39;100475.16;;;25.86;nan
58759;BME280;46777;47.482;19.054;2022-08-02T05:34:24;100483.66;;;26.20;nan
58759;BME280;46777;47.482;19.054;2022-08-02T05:37:08;100493.25;;;26.24;nan
58759;BME280;46777;47.482;19.054;2022-08-02T05:39:53;100496.50;;;26.02;nan
58759;BME280;46777;47.482;19.054;2022-08-02T05:42:38;100495.47;;;26.05;nan
58759;BME280;46777;47.482;19.054;2022-08-02T05:45:23;100495.09;;;26.24;nan
58759;BME280;46777;47.482;19.054;2022-08-02T05:48:08;100492.34;;;26.51;nan
58759;BME280;46777;47.482;19.054;2022-08-02T05:50:54;100494.69;;;26.56;nan
58759;BME280;46777;47.482;19.054;2022-08-02T05:53:49;100497.94;;;26.35;nan
58759;BME280;46777;47.482;19.054;2022-08-02T06:05:28;100493.88;;;27.19;nan
58759;BME280;46777;47.482;19.054;2022-08-02T06:08:16;100498.84;;;27.38;nan
58759;BME280;46777;47.482;19.054;2022-08-02T06:11:04;100504.88;;;27.16;nan
58759;BME280;46777;47.482;19.054;2022-08-02T06:13:50;100496.00;;;27.53;nan
58759;BME280;46777;47.482;19.054;2022-08-02T06:16:35;100493.53;;;27.50;nan
58759;BME280;46777;47.482;19.054;2022-08-02T06:19:20;100493.41;;;27.51;nan
58759;BME280;46777;47.482;19.054;2022-08-02T06:22:06;100498.69;;;27.53;nan
58759;BME280;46777;47.482;19.054;2022-08-02T06:25:00;100494.59;;;27.47;nan
58759;BME280;46777;47.482;19.054;2022-08-02T06:27:48;100495.53;;;27.59;nan
58759;BME280;46777;47.482;19.054;2022-08-02T06:30:32;100494.75;;;27.20;nan
58759;BME280;46777;47.482;19.054;2022-08-02T06:33:17;100502.44;;;27.00;nan
58759;BME280;46777;47.482;19.054;2022-08-02T06:39:27;100497.22;;;26.97;nan
58759;BME280;46777;47.482;19.054;2022-08-02T06:42:20;100499.84;;;26.86;nan
58759;BME280;46777;47.482;19.054;2022-08-02T06:45:09;100505.00;;;27.02;nan
58759;BME280;46777;47.482;19.054;2022-08-02T06:47:54;100506.03;;;27.25;nan
58759;BME280;46777;47.482;19.054;2022-08-02T06:50:39;100512.84;;;26.66;nan
58759;BME280;46777;47.482;19.054;2022-08-02T06:53:25;100506.19;;;26.85;nan
58759;BME280;46777;47.482;19.054;2022-08-02T06:56:10;100506.84;;;26.89;nan
58759;BME280;46777;47.482;19.054;2022-08-02T06:58:55;100511.78;;;27.20;nan
58759;BME280;46777;47.482;19.054;2022-08-02T07:01:40;100511.13;;;26.91;nan
58759;BME280;46777;47.482;19.054;2022-08-02T07:04:24;100506.16;;;27.24;nan
58759;BME280;46777;47.482;19.054;2022-08-02T07:07:09;100508.00;;;27.23;nan
58759;BME280;46777;47.482;19.054;2022-08-02T07:09:54;100499.50;;;27.42;nan
58759;BME280;46777;47.482;19.054;2022-08-02T07:12:39;100497.50;;;27.57;nan
58759;BME280;46777;47.482;19.054;2022-08-02T07:15:24;100504.75;;;27.81;nan
58759;BME280;46777;47.482;19.054;2022-08-02T07:18:09;100506.25;;;27.48;nan
58759;BME280;46777;47.482;19.054;2022-08-02T07:20:59;100499.19;;;27.71;nan
58759;BME280;46777;47.482;19.054;2022-08-02T07:23:43;100498.00;;;27.99;nan
58759;BME280;46777;47.482;19.054;2022-08-02T07:26:28;100502.72;;;27.71;nan
58759;BME280;46777;47.482;19.054;2022-08-02T07:29:13;100505.16;;;28.12;nan
58759;BME280;46777;47.482;19.054;2022-08-02T07:31:58;100502.44;;;28.00;nan
58759;BME280;46777;47.482;19.054;2022-08-02T07:34:44;100503.06;;;28.28;nan
58759;BME280;46777;47.482;19.054;2022-08-02T07:37:31;100495.41;;;27.73;nan
58759;BME280;46777;47.482;19.054;2022-08-02T07:40:15;100496.41;;;28.32;nan
58759;BME280;46777;47.482;19.054;2022-08-02T07:43:01;100501.09;;;28.30;nan
58759;BME280;46777;47.482;19.054;2022-08-02T07:45:45;100498.16;;;28.33;nan
58759;BME280;46777;47.482;19.054;2022-08-02T07:48:30;100500.25;;;28.76;nan
58759;BME280;46777;47.482;19.054;2022-08-02T07:51:15;100492.19;;;29.33;nan
58759;BME280;46777;47.482;19.054;2022-08-02T07:54:00;100490.38;;;29.34;nan
58759;BME280;46777;47.482;19.054;2022-08-02T07:56:45;100484.34;;;29.30;nan
58759;BME280;46777;47.482;19.054;2022-08-02T07:59:29;100486.03;;;29.65;nan
58759;BME280;46777;47.482;19.054;2022-08-02T08:02:14;100487.97;;;29.63;nan
58759;BME280;46777;47.482;19.054;2022-08-02T08:04:59;100476.13;;;29.87;nan
58759;BME280;46777;47.482;19.054;2022-08-02T08:07:44;100482.66;;;30.16;nan
58759;BME280;46777;47.482;19.054;2022-08-02T08:10:29;100480.94;;;30.48;nan
58759;BME280;46777;47.482;19.054;2022-08-02T08:13:14;100487.88;;;30.08;nan
58759;BME280;46777;47.482;19.054;2022-08-02T08:15:59;100486.94;;;30.51;nan
58759;BME280;46777;47.482;19.054;2022-08-02T08:18:44;100494.38;;;30.80;nan
58759;BME280;46777;47.482;19.054;2022-08-02T08:21:28;100500.97;;;30.24;nan
58759;BME280;46777;47.482;19.054;2022-08-02T08:24:13;100496.66;;;30.54;nan
58759;BME280;46777;47.482;19.054;2022-08-02T08:26:58;100504.50;;;30.36;nan
58759;BME280;46777;47.482;19.054;2022-08-02T08:29:44;100502.28;;;30.41;nan
58759;BME280;46777;47.482;19.054;2022-08-02T08:32:29;100507.59;;;29.99;nan
58759;BME280;46777;47.482;19.054;2022-08-02T08:35:14;100504.94;;;30.52;nan
58759;BME280;46777;47.482;19.054;2022-08-02T08:37:58;100504.44;;;31.20;nan
58759;BME280;46777;47.482;19.054;2022-08-02T08:40:43;100502.41;;;31.03;nan
58759;BME280;46777;47.482;19.054;2022-08-02T08:43:28;100504.63;;;30.98;nan
58759;BME280;46777;47.482;19.054;2022-08-02T08:46:28;100504.72;;;31.17;nan
58759;BME280;46777;47.482;19.054;2022-08-02T08:49:36;100503.09;;;31.36;nan
58759;BME280;46777;47.482;19.054;2022-08-02T08:52:24;100497.75;;;30.94;nan
58759;BME280;46777;47.482;19.054;2022-08-02T08:55:10;100496.00;;;31.45;nan
58759;BME280;46777;47.482;19.054;2022-08-02T08:57:57;100500.22;;;31.78;nan
58759;BME280;46777;47.482;19.054;2022-08-02T09:00:43;100504.63;;;31.69;nan
58759;BME280;46777;47.482;19.054;2022-08-02T09:03:28;100497.47;;;32.95;nan
58759;BME280;46777;47.482;19.054;2022-08-02T09:06:13;100499.00;;;32.21;nan
58759;BME280;46777;47.482;19.054;2022-08-02T09:08:58;100511.56;;;32.42;nan
58759;BME280;46777;47.482;19.054;2022-08-02T09:11:42;100503.50;;;31.72;nan
58759;BME280;46777;47.482;19.054;2022-08-02T09:14:28;100500.66;;;31.64;nan
58759;BME280;46777;47.482;19.054;2022-08-02T09:17:13;100498.69;;;31.76;nan
58759;BME280;46777;47.482;19.054;2022-08-02T09:20:07;100504.69;;;31.99;nan
58759;BME280;46777;47.482;19.054;2022-08-02T09:23:06;100506.16;;;32.22;nan
58759;BME280;46777;47.482;19.054;2022-08-02T09:26:01;100501.25;;;32.75;nan
58759;BME280;46777;47.482;19.054;2022-08-02T09:28:48;100503.97;;;32.75;nan
58759;BME280;46777;47.482;19.054;2022-08-02T09:31:33;100509.91;;;32.98;nan
58759;BME280;46777;47.482;19.054;2022-08-02T09:34:18;100491.72;;;32.99;nan
58759;BME280;46777;47.482;19.054;2022-08-02T09:37:03;100494.59;;;32.97;nan
58759;BME280;46777;47.482;19.054;2022-08-02T09:39:48;100500.69;;;32.71;nan
58759;BME280;46777;47.482;19.054;2022-08-02T09:42:33;100498.25;;;33.53;nan
58759;BME280;46777;47.482;19.054;2022-08-02T09:45:18;100505.16;;;33.10;nan
58759;BME280;46777;47.482;19.054;2022-08-02T09:48:07;100503.66;;;34.53;nan
58759;BME280;46777;47.482;19.054;2022-08-02T09:50:55;100497.41;;;34.16;nan
58759;BME280;46777;47.482;19.054;2022-08-02T09:53:40;100491.38;;;34.13;nan
58759;BME280;46777;47.482;19.054;2022-08-02T09:56:26;100482.06;;;33.97;nan
58759;BME280;46777;47.482;19.054;2022-08-02T09:59:13;100483.22;;;33.77;nan
58759;BME280;46777;47.482;19.054;2022-08-02T10:01:59;100476.44;;;34.17;nan
58759;BME280;46777;47.482;19.054;2022-08-02T10:04:44;100479.25;;;34.69;nan
58759;BME280;46777;47.482;19.054;2022-08-02T10:07:29;100467.22;;;35.07;nan
58759;BME280;46777;47.482;19.054;2022-08-02T10:10:14;100474.78;;;35.21;nan
58759;BME280;46777;47.482;19.054;2022-08-02T10:12:59;100464.88;;;35.12;nan
58759;BME280;46777;47.482;19.054;2022-08-02T10:15:44;100464.41;;;35.25;nan
58759;BME280;46777;47.482;19.054;2022-08-02T10:18:29;100472.69;;;36.17;nan
58759;BME280;46777;47.482;19.054;2022-08-02T10:24:25;100465.53;;;36.40;nan
58759;BME280;46777;47.482;19.054;2022-08-02T10:27:15;100461.44;;;33.95;nan
58759;BME280;46777;47.482;19.054;2022-08-02T10:30:00;100457.28;;;35.91;nan
58759;BME280;46777;47.482;19.054;2022-08-02T10:32:47;100450.78;;;36.58;nan
58759;BME280;46777;47.482;19.054;2022-08-02T10:35:37;100444.41;;;35.58;nan
58759;BME280;46777;47.482;19.054;2022-08-02T10:38:23;100447.22;;;35.83;nan
58759;BME280;46777;47.482;19.054;2022-08-02T10:41:08;100444.31;;;36.01;nan
58759;BME280;46777;47.482;19.054;2022-08-02T10:43:53;100440.75;;;36.25;nan
58759;BME280;46777;47.482;19.054;2022-08-02T10:46:37;100437.50;;;37.51;nan
58759;BME280;46777;47.482;19.054;2022-08-02T10:49:22;100430.03;;;39.63;nan
58759;BME280;46777;47.482;19.054;2022-08-02T10:52:07;100445.00;;;40.25;nan
58759;BME280;46777;47.482;19.054;2022-08-02T10:57:43;100430.19;;;38.50;nan
58759;BME280;46777;47.482;19.054;2022-08-02T11:00:28;100433.25;;;37.40;nan
58759;BME280;46777;47.482;19.054;2022-08-02T11:03:39;100429.91;;;38.07;nan
58759;BME280;46777;47.482;19.054;2022-08-02T11:06:24;100429.13;;;39.41;nan
58759;BME280;46777;47.482;19.054;2022-08-02T11:09:28;100414.59;;;40.62;nan
58759;BME280;46777;47.482;19.054;2022-08-02T11:12:17;100409.34;;;45.00;nan
58759;BME280;46777;47.482;19.054;2022-08-02T11:15:03;100407.84;;;46.42;nan
58759;BME280;46777;47.482;19.054;2022-08-02T11:17:54;100398.16;;;48.35;nan
58759;BME280;46777;47.482;19.054;2022-08-02T11:20:39;100413.84;;;46.75;nan
58759;BME280;46777;47.482;19.054;2022-08-02T11:23:38;100402.16;;;46.13;nan
58759;BME280;46777;47.482;19.054;2022-08-02T11:29:14;100405.13;;;42.15;nan
58759;BME280;46777;47.482;19.054;2022-08-02T11:31:59;100391.69;;;43.95;nan
58759;BME280;46777;47.482;19.054;2022-08-02T11:34:52;100390.97;;;47.08;nan
58759;BME280;46777;47.482;19.054;2022-08-02T11:37:39;100396.34;;;48.63;nan
58759;BME280;46777;47.482;19.054;2022-08-02T11:40:36;100393.28;;;50.86;nan
58759;BME280;46777;47.482;19.054;2022-08-02T11:43:23;100390.31;;;47.64;nan
58759;BME280;46777;47.482;19.054;2022-08-02T11:46:13;100403.88;;;42.11;nan
58759;BME280;46777;47.482;19.054;2022-08-02T11:49:10;100400.47;;;42.35;nan
58759;BME280;46777;47.482;19.054;2022-08-02T11:52:04;100381.16;;;47.80;nan
58759;BME280;46777;47.482;19.054;2022-08-02T11:54:49;100383.38;;;50.10;nan
58759;BME280;46777;47.482;19.054;2022-08-02T11:57:34;100387.47;;;50.40;nan
58759;BME280;46777;47.482;19.054;2022-08-02T12:00:20;100394.38;;;49.89;nan
58759;BME280;46777;47.482;19.054;2022-08-02T12:03:06;100382.59;;;49.82;nan
58759;BME280;46777;47.482;19.054;2022-08-02T12:05:51;100381.38;;;48.30;nan
58759;BME280;46777;47.482;19.054;2022-08-02T12:08:36;100383.09;;;46.64;nan
58759;BME280;46777;47.482;19.054;2022-08-02T12:11:21;100387.47;;;46.25;nan
58759;BME280;46777;47.482;19.054;2022-08-02T12:14:05;100372.88;;;46.41;nan
58759;BME280;46777;47.482;19.054;2022-08-02T12:16:50;100368.06;;;50.60;nan
58759;BME280;46777;47.482;19.054;2022-08-02T12:19:54;100369.69;;;50.56;nan
58759;BME280;46777;47.482;19.054;2022-08-02T12:22:39;100357.84;;;47.81;nan
58759;BME280;46777;47.482;19.054;2022-08-02T12:25:24;100370.56;;;50.19;nan
58759;BME280;46777;47.482;19.054;2022-08-02T12:28:19;100363.81;;;51.78;nan
58759;BME280;46777;47.482;19.054;2022-08-02T12:31:10;100369.63;;;50.51;nan
58759;BME280;46777;47.482;19.054;2022-08-02T12:33:57;100371.66;;;46.02;nan
58759;BME280;46777;47.482;19.054;2022-08-02T12:39:45;100381.97;;;39.74;nan
58759;BME280;46777;47.482;19.054;2022-08-02T12:42:47;100379.59;;;39.92;nan
58759;BME280;46777;47.482;19.054;2022-08-02T12:45:45;100369.56;;;40.35;nan
58759;BME280;46777;47.482;19.054;2022-08-02T12:48:37;100383.53;;;37.59;nan
58759;BME280;46777;47.482;19.054;2022-08-02T12:51:28;100375.63;;;36.46;nan
58759;BME280;46777;47.482;19.054;2022-08-02T12:54:16;100377.31;;;38.27;nan
58759;BME280;46777;47.482;19.054;2022-08-02T12:57:11;100360.91;;;47.34;nan
58759;BME280;46777;47.482;19.054;2022-08-02T12:59:57;100358.94;;;49.57;nan
58759;BME280;46777;47.482;19.054;2022-08-02T13:02:42;100360.38;;;51.09;nan
58759;BME280;46777;47.482;19.054;2022-08-02T13:05:27;100358.59;;;45.36;nan
58759;BME280;46777;47.482;19.054;2022-08-02T13:08:13;100358.50;;;40.00;nan
58759;BME280;46777;47.482;19.054;2022-08-02T13:10:58;100359.00;;;40.67;nan
58759;BME280;46777;47.482;19.054;2022-08-02T13:13:43;100370.00;;;39.23;nan
58759;BME280;46777;47.482;19.054;2022-08-02T13:16:28;100367.97;;;38.96;nan
58759;BME280;46777;47.482;19.054;2022-08-02T13:19:14;100364.56;;;38.34;nan
58759;BME280;46777;47.482;19.054;2022-08-02T13:21:59;100362.88;;;37.95;nan
58759;BME280;46777;47.482;19.054;2022-08-02T13:24:44;100365.56;;;37.57;nan
58759;BME280;46777;47.482;19.054;2022-08-02T13:27:29;100360.28;;;37.78;nan
58759;BME280;46777;47.482;19.054;2022-08-02T13:30:14;100359.88;;;37.35;nan
58759;BME280;46777;47.482;19.054;2022-08-02T13:32:59;100352.72;;;36.55;nan
58759;BME280;46777;47.482;19.054;2022-08-02T13:35:44;100351.25;;;37.46;nan
58759;BME280;46777;47.482;19.054;2022-08-02T13:38:29;100357.19;;;36.95;nan
58759;BME280;46777;47.482;19.054;2022-08-02T13:41:14;100343.38;;;36.89;nan
58759;BME280;46777;47.482;19.054;2022-08-02T13:43:59;100346.53;;;37.40;nan
58759;BME280;46777;47.482;19.054;2022-08-02T13:46:44;100347.63;;;37.77;nan
58759;BME280;46777;47.482;19.054;2022-08-02T13:49:29;100351.78;;;36.06;nan
58759;BME280;46777;47.482;19.054;2022-08-02T13:52:14;100351.09;;;35.71;nan
58759;BME280;46777;47.482;19.054;2022-08-02T13:54:58;100341.53;;;35.59;nan
58759;BME280;46777;47.482;19.054;2022-08-02T13:57:43;100345.50;;;35.14;nan
58759;BME280;46777;47.482;19.054;2022-08-02T14:00:28;100344.06;;;35.28;nan
58759;BME280;46777;47.482;19.054;2022-08-02T14:03:13;100331.78;;;35.40;nan
58759;BME280;46777;47.482;19.054;2022-08-02T14:05:58;100341.16;;;35.29;nan
58759;BME280;46777;47.482;19.054;2022-08-02T14:08:43;100336.75;;;35.36;nan
58759;BME280;46777;47.482;19.054;2022-08-02T14:11:27;100334.91;;;35.95;nan
58759;BME280;46777;47.482;19.054;2022-08-02T14:14:14;100342.06;;;35.03;nan
58759;BME280;46777;47.482;19.054;2022-08-02T14:16:59;100332.59;;;34.73;nan
58759;BME280;46777;47.482;19.054;2022-08-02T14:19:44;100334.47;;;34.73;nan
58759;BME280;46777;47.482;19.054;2022-08-02T14:22:28;100329.28;;;34.96;nan
58759;BME280;46777;47.482;19.054;2022-08-02T14:25:13;100321.72;;;35.32;nan
58759;BME280;46777;47.482;19.054;2022-08-02T14:27:58;100325.00;;;34.50;nan
58759;BME280;46777;47.482;19.054;2022-08-02T14:30:43;100330.63;;;34.57;nan
58759;BME280;46777;47.482;19.054;2022-08-02T14:33:28;100332.41;;;34.75;nan
58759;BME280;46777;47.482;19.054;2022-08-02T14:36:12;100327.63;;;34.16;nan
58759;BME280;46777;47.482;19.054;2022-08-02T14:38:58;100319.31;;;34.44;nan
58759;BME280;46777;47.482;19.054;2022-08-02T14:41:43;100326.38;;;34.97;nan
58759;BME280;46777;47.482;19.054;2022-08-02T14:44:28;100331.06;;;34.44;nan
58759;BME280;46777;47.482;19.054;2022-08-02T14:47:12;100326.59;;;34.69;nan
58759;BME280;46777;47.482;19.054;2022-08-02T14:49:57;100333.56;;;34.98;nan
58759;BME280;46777;47.482;19.054;2022-08-02T14:52:44;100336.25;;;34.90;nan
58759;BME280;46777;47.482;19.054;2022-08-02T14:55:28;100330.94;;;34.46;nan
58759;BME280;46777;47.482;19.054;2022-08-02T14:58:13;100336.97;;;34.31;nan
58759;BME280;46777;47.482;19.054;2022-08-02T15:00:58;100331.34;;;34.67;nan
58759;BME280;46777;47.482;19.054;2022-08-02T15:03:43;100325.41;;;34.64;nan
58759;BME280;46777;47.482;19.054;2022-08-02T15:06:28;100337.81;;;33.88;nan
58759;BME280;46777;47.482;19.054;2022-08-02T15:09:16;100346.38;;;34.37;nan
58759;BME280;46777;47.482;19.054;2022-08-02T15:12:01;100341.44;;;34.41;nan